RUK32T EGPH-EGAA
Flight info
| Callsign | RUK32T |
|---|---|
| Flight time | 0h 27m |
| Altitude | 18000 |
| Route | GOSAM1D GOSAM P600 BLACA DCT BELZU DCT |
| Aircraft | B738/M-SDE2E3FGHIRWXY/LB1 |
Departure
| Time | 2026-04-25 19:49 |
|---|---|
| Airport | Edinburgh Airport (EGPH) |
Arrival
| Time | 2026-04-25 20:17 |
|---|---|
| Airport | Belfast International Airport (EGAA) |
| Time | Latitude | Longitude | Altitude | Speed | Heading |
|---|---|---|---|---|---|
| 2026-04-25 19:19 | 55.94612 | -3.36630 | 114 ft | 0 kts | 89° |
| 2026-04-25 19:39 | 55.94611 | -3.36662 | 112 ft | 4 kts | 83° |
| 2026-04-25 19:39 | 55.94605 | -3.36708 | 111 ft | 4 kts | 57° |
| 2026-04-25 19:39 | 55.94588 | -3.36733 | 112 ft | 2 kts | 1° |
| 2026-04-25 19:40 | 55.94586 | -3.36733 | 112 ft | 0 kts | 359° |
| 2026-04-25 19:42 | 55.94588 | -3.36733 | 112 ft | 1 kts | 359° |
| 2026-04-25 19:42 | 55.94607 | -3.36733 | 111 ft | 5 kts | 359° |
| 2026-04-25 19:42 | 55.94656 | -3.36735 | 115 ft | 9 kts | 359° |
| 2026-04-25 19:43 | 55.94730 | -3.36737 | 115 ft | 12 kts | 359° |
| 2026-04-25 19:43 | 55.94804 | -3.36779 | 115 ft | 11 kts | 357° |
| 2026-04-25 19:43 | 55.94880 | -3.36789 | 115 ft | 11 kts | 340° |
| 2026-04-25 19:43 | 55.94927 | -3.36876 | 113 ft | 10 kts | 269° |
| 2026-04-25 19:44 | 55.94895 | -3.36986 | 113 ft | 10 kts | 239° |
| 2026-04-25 19:44 | 55.94860 | -3.37090 | 114 ft | 10 kts | 239° |
| 2026-04-25 19:44 | 55.94817 | -3.37218 | 115 ft | 15 kts | 238° |
| 2026-04-25 19:44 | 55.94751 | -3.37408 | 114 ft | 21 kts | 238° |
| 2026-04-25 19:45 | 55.94669 | -3.37654 | 114 ft | 24 kts | 239° |
| 2026-04-25 19:45 | 55.94585 | -3.37901 | 112 ft | 23 kts | 239° |
| 2026-04-25 19:45 | 55.94506 | -3.38136 | 115 ft | 22 kts | 239° |
| 2026-04-25 19:45 | 55.94427 | -3.38367 | 114 ft | 21 kts | 238° |
| 2026-04-25 19:46 | 55.94351 | -3.38591 | 113 ft | 21 kts | 239° |
| 2026-04-25 19:46 | 55.94281 | -3.38804 | 114 ft | 12 kts | 250° |
| 2026-04-25 19:46 | 55.94307 | -3.38890 | 115 ft | 8 kts | 330° |
| 2026-04-25 19:46 | 55.94321 | -3.38904 | 113 ft | 0 kts | 330° |
| 2026-04-25 19:47 | 55.94323 | -3.38906 | 113 ft | 2 kts | 330° |
| 2026-04-25 19:47 | 55.94349 | -3.38934 | 114 ft | 8 kts | 330° |
| 2026-04-25 19:48 | 55.94424 | -3.38946 | 110 ft | 13 kts | 40° |
| 2026-04-25 19:48 | 55.94463 | -3.38834 | 113 ft | 5 kts | 58° |
| 2026-04-25 19:48 | 55.94464 | -3.38830 | 113 ft | 0 kts | 58° |
| 2026-04-25 19:48 | 55.94465 | -3.38830 | 113 ft | 1 kts | 58° |
| 2026-04-25 19:49 | 55.94547 | -3.38585 | 112 ft | 56 kts | 58° |
| 2026-04-25 19:49 | 55.94734 | -3.38033 | 111 ft | 99 kts | 58° |
| 2026-04-25 19:49 | 55.95378 | -3.36121 | 255 ft | 157 kts | 59° |
| 2026-04-25 19:49 | 55.95921 | -3.34522 | 1105 ft | 149 kts | 60° |
| 2026-04-25 19:50 | 55.97582 | -3.31600 | 1759 ft | 193 kts | 45° |
| 2026-04-25 19:50 | 55.98641 | -3.29940 | 1931 ft | 212 kts | 45° |
| 2026-04-25 19:50 | 55.99891 | -3.28364 | 2149 ft | 230 kts | 24° |
| 2026-04-25 19:51 | 56.01478 | -3.28177 | 2570 ft | 240 kts | 347° |
| 2026-04-25 19:51 | 56.02905 | -3.29741 | 2994 ft | 246 kts | 307° |
| 2026-04-25 19:51 | 56.03465 | -3.32493 | 3727 ft | 233 kts | 269° |
| 2026-04-25 19:51 | 56.03146 | -3.35302 | 4283 ft | 231 kts | 253° |
| 2026-04-25 19:52 | 56.02695 | -3.38073 | 4708 ft | 235 kts | 254° |
| 2026-04-25 19:52 | 56.02245 | -3.40889 | 5236 ft | 233 kts | 253° |
| 2026-04-25 19:52 | 56.01812 | -3.43666 | 5731 ft | 233 kts | 253° |
| 2026-04-25 19:52 | 56.01394 | -3.46448 | 5817 ft | 231 kts | 255° |
| 2026-04-25 19:53 | 56.00997 | -3.49215 | 5969 ft | 234 kts | 255° |
| 2026-04-25 19:53 | 56.00584 | -3.52111 | 6132 ft | 249 kts | 255° |
| 2026-04-25 19:53 | 56.00143 | -3.55203 | 6360 ft | 265 kts | 256° |
| 2026-04-25 19:53 | 55.99692 | -3.58365 | 7022 ft | 267 kts | 256° |
| 2026-04-25 19:54 | 55.99228 | -3.61614 | 7616 ft | 272 kts | 255° |
| 2026-04-25 19:54 | 55.98760 | -3.64880 | 8429 ft | 268 kts | 255° |
| 2026-04-25 19:54 | 55.98296 | -3.68115 | 9155 ft | 272 kts | 254° |
| 2026-04-25 19:54 | 55.97984 | -3.70287 | 9608 ft | 274 kts | 254° |
| 2026-04-25 19:55 | 55.97347 | -3.74713 | 10541 ft | 279 kts | 254° |
| 2026-04-25 19:55 | 55.96859 | -3.78100 | 11165 ft | 282 kts | 254° |
| 2026-04-25 19:55 | 55.96150 | -3.81372 | 11743 ft | 288 kts | 232° |
| 2026-04-25 19:55 | 55.94669 | -3.83708 | 12527 ft | 285 kts | 215° |
| 2026-04-25 19:56 | 55.93043 | -3.85739 | 13266 ft | 287 kts | 215° |
| 2026-04-25 19:56 | 55.91427 | -3.87740 | 14054 ft | 287 kts | 215° |
| 2026-04-25 19:56 | 55.89759 | -3.89818 | 14486 ft | 301 kts | 216° |
| 2026-04-25 19:56 | 55.87982 | -3.92053 | 14617 ft | 324 kts | 216° |
| 2026-04-25 19:57 | 55.86089 | -3.94444 | 14798 ft | 344 kts | 216° |
| 2026-04-25 19:57 | 55.84084 | -3.96984 | 14963 ft | 363 kts | 215° |
| 2026-04-25 19:57 | 55.81976 | -3.99659 | 15077 ft | 381 kts | 216° |
| 2026-04-25 19:57 | 55.79816 | -4.02404 | 15293 ft | 395 kts | 216° |
| 2026-04-25 19:58 | 55.77571 | -4.05257 | 15907 ft | 397 kts | 216° |
| 2026-04-25 19:58 | 55.75320 | -4.08118 | 16508 ft | 400 kts | 216° |
| 2026-04-25 19:58 | 55.73045 | -4.11010 | 17032 ft | 404 kts | 216° |
| 2026-04-25 19:58 | 55.70777 | -4.13891 | 17579 ft | 407 kts | 216° |
| 2026-04-25 19:59 | 55.68479 | -4.16805 | 18177 ft | 406 kts | 217° |
| 2026-04-25 19:59 | 55.66173 | -4.19727 | 18244 ft | 410 kts | 216° |
| 2026-04-25 19:59 | 55.63843 | -4.22675 | 18256 ft | 411 kts | 217° |
| 2026-04-25 19:59 | 55.61517 | -4.25612 | 18255 ft | 410 kts | 217° |
| 2026-04-25 20:00 | 55.59191 | -4.28545 | 18243 ft | 411 kts | 217° |
| 2026-04-25 20:00 | 55.57646 | -4.30491 | 18247 ft | 412 kts | 216° |
| 2026-04-25 20:00 | 55.54526 | -4.34413 | 18220 ft | 412 kts | 216° |
| 2026-04-25 20:00 | 55.52194 | -4.37341 | 18211 ft | 412 kts | 216° |
| 2026-04-25 20:01 | 55.47556 | -4.43149 | 18210 ft | 411 kts | 216° |
| 2026-04-25 20:01 | 55.45227 | -4.46061 | 18216 ft | 411 kts | 216° |
| 2026-04-25 20:01 | 55.42898 | -4.48967 | 18206 ft | 411 kts | 216° |
| 2026-04-25 20:02 | 55.40566 | -4.51873 | 18211 ft | 410 kts | 216° |
| 2026-04-25 20:02 | 55.38237 | -4.54770 | 18216 ft | 410 kts | 216° |
| 2026-04-25 20:02 | 55.35906 | -4.57667 | 18216 ft | 410 kts | 216° |
| 2026-04-25 20:02 | 55.33574 | -4.60559 | 18218 ft | 410 kts | 216° |
| 2026-04-25 20:03 | 55.31240 | -4.63451 | 18218 ft | 410 kts | 216° |
| 2026-04-25 20:03 | 55.28906 | -4.66337 | 18222 ft | 411 kts | 216° |
| 2026-04-25 20:03 | 55.26569 | -4.69223 | 18227 ft | 411 kts | 216° |
| 2026-04-25 20:03 | 55.24235 | -4.72103 | 18228 ft | 411 kts | 216° |
| 2026-04-25 20:04 | 55.21897 | -4.74982 | 18227 ft | 411 kts | 216° |
| 2026-04-25 20:04 | 55.19589 | -4.77820 | 18223 ft | 411 kts | 216° |
| 2026-04-25 20:04 | 55.17248 | -4.80694 | 18223 ft | 411 kts | 216° |
| 2026-04-25 20:04 | 55.14906 | -4.83566 | 18219 ft | 411 kts | 216° |
| 2026-04-25 20:05 | 55.12564 | -4.86433 | 18221 ft | 411 kts | 216° |
| 2026-04-25 20:05 | 55.10219 | -4.89300 | 18224 ft | 411 kts | 216° |
| 2026-04-25 20:05 | 55.07877 | -4.92159 | 18228 ft | 411 kts | 216° |
| 2026-04-25 20:05 | 55.05559 | -4.94984 | 18177 ft | 398 kts | 216° |
| 2026-04-25 20:06 | 55.03309 | -4.97723 | 17671 ft | 392 kts | 216° |
| 2026-04-25 20:06 | 55.01130 | -5.00372 | 17157 ft | 387 kts | 216° |
| 2026-04-25 20:06 | 54.98943 | -5.03028 | 16654 ft | 382 kts | 216° |
| 2026-04-25 20:06 | 54.96803 | -5.05624 | 16148 ft | 378 kts | 216° |
| 2026-04-25 20:07 | 54.94661 | -5.08218 | 15649 ft | 373 kts | 216° |
| 2026-04-25 20:07 | 54.92539 | -5.10786 | 15158 ft | 370 kts | 215° |
| 2026-04-25 20:07 | 54.90437 | -5.13324 | 14677 ft | 366 kts | 215° |
| 2026-04-25 20:07 | 54.88352 | -5.15840 | 14193 ft | 364 kts | 215° |
| 2026-04-25 20:08 | 54.86414 | -5.18622 | 13653 ft | 361 kts | 229° |
| 2026-04-25 20:08 | 54.85141 | -5.22341 | 13132 ft | 360 kts | 249° |
| 2026-04-25 20:08 | 54.84481 | -5.26518 | 12624 ft | 358 kts | 256° |
| 2026-04-25 20:08 | 54.83968 | -5.30735 | 11857 ft | 357 kts | 257° |
| 2026-04-25 20:09 | 54.83489 | -5.34952 | 11145 ft | 356 kts | 258° |
| 2026-04-25 20:09 | 54.83020 | -5.39153 | 10437 ft | 353 kts | 258° |
| 2026-04-25 20:09 | 54.82561 | -5.43313 | 9709 ft | 350 kts | 258° |
| 2026-04-25 20:09 | 54.82117 | -5.47390 | 8964 ft | 347 kts | 258° |
| 2026-04-25 20:10 | 54.81676 | -5.51488 | 8219 ft | 344 kts | 258° |
| 2026-04-25 20:10 | 54.81236 | -5.55546 | 7542 ft | 341 kts | 258° |
| 2026-04-25 20:10 | 54.80797 | -5.59554 | 6928 ft | 335 kts | 258° |
| 2026-04-25 20:10 | 54.80360 | -5.63495 | 6302 ft | 331 kts | 258° |
| 2026-04-25 20:11 | 54.79926 | -5.67364 | 5774 ft | 324 kts | 258° |
| 2026-04-25 20:11 | 54.79497 | -5.71148 | 5306 ft | 316 kts | 258° |
| 2026-04-25 20:11 | 54.79074 | -5.74832 | 4928 ft | 307 kts | 257° |
| 2026-04-25 20:11 | 54.78371 | -5.78252 | 4515 ft | 298 kts | 240° |
| 2026-04-25 20:12 | 54.77144 | -5.81060 | 4137 ft | 289 kts | 227° |
| 2026-04-25 20:12 | 54.75928 | -5.83714 | 3764 ft | 284 kts | 239° |
| 2026-04-25 20:12 | 54.75083 | -5.86770 | 3404 ft | 279 kts | 246° |
| 2026-04-25 20:12 | 54.74570 | -5.88839 | 3134 ft | 275 kts | 245° |
| 2026-04-25 20:13 | 54.73558 | -5.92699 | 3003 ft | 254 kts | 244° |
| 2026-04-25 20:13 | 54.72833 | -5.95365 | 3000 ft | 234 kts | 244° |
| 2026-04-25 20:13 | 54.72172 | -5.97801 | 2966 ft | 215 kts | 244° |
| 2026-04-25 20:13 | 54.71561 | -6.00054 | 2750 ft | 203 kts | 244° |
| 2026-04-25 20:14 | 54.70982 | -6.02190 | 2499 ft | 194 kts | 243° |
| 2026-04-25 20:14 | 54.70425 | -6.04250 | 2236 ft | 184 kts | 243° |
| 2026-04-25 20:14 | 54.69903 | -6.06179 | 1991 ft | 170 kts | 243° |
| 2026-04-25 20:14 | 54.69435 | -6.07912 | 1774 ft | 155 kts | 243° |
| 2026-04-25 20:15 | 54.68989 | -6.09565 | 1564 ft | 149 kts | 243° |
| 2026-04-25 20:15 | 54.68551 | -6.11184 | 1381 ft | 150 kts | 244° |
| 2026-04-25 20:15 | 54.68102 | -6.12840 | 1163 ft | 154 kts | 243° |
| 2026-04-25 20:15 | 54.67652 | -6.14506 | 953 ft | 152 kts | 244° |
| 2026-04-25 20:16 | 54.67210 | -6.16155 | 742 ft | 150 kts | 245° |
| 2026-04-25 20:16 | 54.66776 | -6.17781 | 549 ft | 148 kts | 243° |
| 2026-04-25 20:16 | 54.66342 | -6.19386 | 335 ft | 146 kts | 243° |
| 2026-04-25 20:16 | 54.65934 | -6.20888 | 272 ft | 125 kts | 245° |
| 2026-04-25 20:17 | 54.65621 | -6.22051 | 271 ft | 82 kts | 245° |
| 2026-04-25 20:17 | 54.65487 | -6.22544 | 274 ft | 21 kts | 248° |
| 2026-04-25 20:17 | 54.65524 | -6.22714 | 271 ft | 12 kts | 340° |
| 2026-04-25 20:17 | 54.65605 | -6.22759 | 271 ft | 12 kts | 342° |
| 2026-04-25 20:18 | 54.65684 | -6.22797 | 271 ft | 12 kts | 355° |
| 2026-04-25 20:18 | 54.65743 | -6.22723 | 274 ft | 11 kts | 78° |
| 2026-04-25 20:18 | 54.65742 | -6.22628 | 271 ft | 7 kts | 81° |
| 2026-04-25 20:18 | 54.65750 | -6.22536 | 271 ft | 9 kts | 83° |
| 2026-04-25 20:19 | 54.65758 | -6.22414 | 271 ft | 12 kts | 83° |
| 2026-04-25 20:19 | 54.65769 | -6.22256 | 271 ft | 14 kts | 83° |
| 2026-04-25 20:19 | 54.65793 | -6.22100 | 271 ft | 13 kts | 68° |
| 2026-04-25 20:19 | 54.65831 | -6.21957 | 273 ft | 13 kts | 65° |
| 2026-04-25 20:20 | 54.65869 | -6.21818 | 274 ft | 13 kts | 65° |
| 2026-04-25 20:20 | 54.65905 | -6.21683 | 272 ft | 12 kts | 64° |
| 2026-04-25 20:20 | 54.65936 | -6.21570 | 271 ft | 7 kts | 64° |
| 2026-04-25 20:20 | 54.65961 | -6.21501 | 271 ft | 7 kts | 36° |
| 2026-04-25 20:21 | 54.66007 | -6.21499 | 271 ft | 7 kts | 337° |
| 2026-04-25 20:21 | 54.66049 | -6.21534 | 273 ft | 6 kts | 335° |
| 2026-04-25 20:21 | 54.66068 | -6.21549 | 271 ft | 1 kts | 335° |
| 2026-04-25 20:21 | 54.66071 | -6.21551 | 271 ft | 0 kts | 335° |